createdAt,value
2018-10-03T00:01:13.782Z,77.81
2018-10-03T00:03:42.222Z,77.91
2018-10-03T00:06:10.722Z,78.47
2018-10-03T00:08:39.376Z,77.96
2018-10-03T00:11:07.987Z,78.15
2018-10-03T00:13:36.396Z,78.55
2018-10-03T00:16:04.919Z,78.21
2018-10-03T00:18:33.375Z,78.63
2018-10-03T00:21:01.902Z,78.76
2018-10-03T00:23:30.388Z,78.14
2018-10-03T00:25:59.798Z,78.13
2018-10-03T00:28:28.237Z,78.65
2018-10-03T00:30:56.710Z,78.75
2018-10-03T00:33:25.787Z,78.33
2018-10-03T00:35:54.248Z,78.36
2018-10-03T00:38:22.703Z,79.02
2018-10-03T00:40:51.546Z,79.13
2018-10-03T00:43:19.968Z,78.51
2018-10-03T00:45:48.530Z,78.71
2018-10-03T00:48:17.497Z,78.60
2018-10-03T00:50:45.969Z,78.96
2018-10-03T00:53:14.391Z,79.36
2018-10-03T00:55:42.912Z,78.84
2018-10-03T00:58:11.387Z,79.41
2018-10-03T01:00:39.844Z,79.29
2018-10-03T01:03:08.346Z,79.88
2018-10-03T01:05:36.846Z,79.31
2018-10-03T01:08:05.304Z,79.65
2018-10-03T01:10:33.785Z,79.40
2018-10-03T01:13:02.298Z,79.48
2018-10-03T01:15:30.815Z,79.86
2018-10-03T01:17:59.348Z,80.08
2018-10-03T01:20:27.822Z,79.99
2018-10-03T01:22:56.982Z,79.48
2018-10-03T01:25:25.658Z,80.04
2018-10-03T01:27:54.182Z,79.83
2018-10-03T01:30:22.678Z,79.86
2018-10-03T01:32:51.165Z,79.58
2018-10-03T01:35:19.683Z,79.51
2018-10-03T01:37:48.583Z,79.02
2018-10-03T01:40:17.077Z,79.54
2018-10-03T01:42:45.554Z,79.57
2018-10-03T01:45:14.436Z,79.28
2018-10-03T01:47:42.972Z,79.51
2018-10-03T01:50:11.511Z,79.41
2018-10-03T01:52:40.271Z,79.35
2018-10-03T01:55:08.817Z,78.73
2018-10-03T01:57:37.281Z,79.15
2018-10-03T02:00:06.081Z,78.81
2018-10-03T02:02:34.574Z,79.38
2018-10-03T02:05:03.122Z,79.08
2018-10-03T02:07:31.703Z,78.53
2018-10-03T02:10:00.314Z,79.09
2018-10-03T02:12:28.823Z,79.15
2018-10-03T02:14:57.292Z,78.52
2018-10-03T02:17:25.785Z,78.39
2018-10-03T02:19:54.223Z,78.32
2018-10-03T02:22:23.013Z,78.31
2018-10-03T02:24:51.550Z,78.62
2018-10-03T02:27:20.105Z,79.07
2018-10-03T02:29:48.642Z,78.57
2018-10-03T02:32:17.155Z,78.52
2018-10-03T02:34:45.645Z,79.15
2018-10-03T02:37:14.088Z,78.37
2018-10-03T02:39:42.587Z,78.71
2018-10-03T02:42:11.024Z,78.68
2018-10-03T02:44:39.454Z,78.14
2018-10-03T02:47:07.932Z,78.68
2018-10-03T02:49:36.460Z,78.64
2018-10-03T02:52:05.042Z,78.33
2018-10-03T02:54:33.510Z,78.84
2018-10-03T02:57:02.019Z,78.76
2018-10-03T02:59:30.522Z,78.14
2018-10-03T03:01:59.088Z,78.14
2018-10-03T03:04:28.023Z,78.63
2018-10-03T03:06:56.483Z,78.45
2018-10-03T03:09:24.949Z,77.80
2018-10-03T03:11:53.693Z,77.96
2018-10-03T03:14:22.187Z,77.83
2018-10-03T03:16:50.622Z,77.79
2018-10-03T03:19:19.548Z,78.44
2018-10-03T03:21:48.031Z,77.84
2018-10-03T03:24:16.514Z,77.69
2018-10-03T03:26:45.005Z,78.29
2018-10-03T03:29:13.542Z,78.31
2018-10-03T03:31:42.050Z,78.29
2018-10-03T03:34:10.553Z,78.33
2018-10-03T03:36:39.019Z,78.35
2018-10-03T03:39:08.428Z,78.38
2018-10-03T03:41:37.035Z,77.82
2018-10-03T03:44:05.559Z,78.26
2018-10-03T03:46:34.046Z,77.70
2018-10-03T03:49:02.522Z,77.72
2018-10-03T03:51:32.035Z,78.29
2018-10-03T03:54:00.570Z,77.69
2018-10-03T03:56:29.034Z,77.71
2018-10-03T03:58:57.855Z,77.81
2018-10-03T04:01:26.297Z,77.91
2018-10-03T04:03:55.023Z,77.81
2018-10-03T04:06:23.520Z,78.01
2018-10-03T04:08:52.061Z,77.47
2018-10-03T04:11:20.569Z,77.34
2018-10-03T04:13:49.104Z,77.37
2018-10-03T04:16:17.906Z,77.25
2018-10-03T04:18:46.410Z,77.76
2018-10-03T04:21:14.873Z,77.75
2018-10-03T04:23:43.673Z,77.91
2018-10-03T04:26:12.815Z,77.19
2018-10-03T04:28:41.282Z,77.13
2018-10-03T04:31:10.259Z,77.04
2018-10-03T04:33:38.890Z,77.56
2018-10-03T04:36:07.595Z,77.28
2018-10-03T04:38:36.285Z,77.18
2018-10-03T04:41:05.748Z,77.36
2018-10-03T04:43:34.264Z,77.76
2018-10-03T04:46:02.805Z,77.88
2018-10-03T04:48:36.089Z,77.19
2018-10-03T04:51:05.298Z,77.27
2018-10-03T04:53:33.869Z,77.80
2018-10-03T04:56:02.391Z,77.71
2018-10-03T04:58:30.959Z,77.23
2018-10-03T05:00:59.568Z,77.66
2018-10-03T05:03:28.186Z,77.57
2018-10-03T05:05:57.012Z,77.58
2018-10-03T05:08:25.730Z,77.55
2018-10-03T05:10:54.390Z,77.76
2018-10-03T05:13:23.055Z,77.06
2018-10-03T05:15:51.626Z,77.57
2018-10-03T05:18:20.545Z,77.47
2018-10-03T05:20:49.181Z,77.53
2018-10-03T05:23:17.858Z,77.46
2018-10-03T05:25:46.628Z,77.62
2018-10-03T05:28:15.538Z,76.97
2018-10-03T05:30:44.154Z,77.12
2018-10-03T05:33:12.942Z,77.38
2018-10-03T05:35:41.525Z,77.45
2018-10-03T05:38:10.281Z,76.85
2018-10-03T05:40:39.305Z,77.12
2018-10-03T05:43:07.977Z,77.04
2018-10-03T05:45:36.599Z,77.11
2018-10-03T05:48:05.239Z,77.58
2018-10-03T05:50:33.820Z,76.85
2018-10-03T05:53:02.462Z,76.66
2018-10-03T05:55:31.014Z,77.23
2018-10-03T05:57:59.591Z,77.16
2018-10-03T06:00:28.370Z,76.75
2018-10-03T06:02:58.236Z,77.01
2018-10-03T06:05:27.281Z,76.67
2018-10-03T06:07:55.793Z,77.02
2018-10-03T06:10:24.428Z,76.08
2018-10-03T06:12:53.328Z,76.32
2018-10-03T06:15:22.681Z,76.31
2018-10-03T06:17:51.941Z,76.57
2018-10-03T06:20:22.702Z,76.73
2018-10-03T06:22:51.288Z,76.47
2018-10-03T06:25:22.014Z,77.15
2018-10-03T06:27:50.709Z,76.45
2018-10-03T06:30:19.259Z,76.41
2018-10-03T06:32:47.919Z,76.34
2018-10-03T06:35:17.343Z,77.12
2018-10-03T06:37:46.695Z,77.21
2018-10-03T06:40:15.701Z,76.75
2018-10-03T06:42:44.856Z,76.10
2018-10-03T06:45:13.756Z,76.61
2018-10-03T06:47:42.542Z,76.69
2018-10-03T06:50:11.730Z,76.41
2018-10-03T06:52:41.242Z,75.95
2018-10-03T06:55:10.112Z,75.79
2018-10-03T06:57:38.753Z,76.03
2018-10-03T07:00:07.462Z,75.82
2018-10-03T07:02:36.202Z,75.95
2018-10-03T07:05:05.569Z,75.78
2018-10-03T07:07:34.326Z,75.67
2018-10-03T07:10:03.442Z,75.39
2018-10-03T07:12:32.162Z,75.30
2018-10-03T07:15:00.908Z,75.25
2018-10-03T07:17:29.643Z,75.53
2018-10-03T07:19:59.104Z,74.90
2018-10-03T07:22:27.723Z,75.23
2018-10-03T07:24:56.977Z,74.56
2018-10-03T07:27:25.861Z,74.45
2018-10-03T07:29:54.843Z,74.65
2018-10-03T07:32:24.024Z,74.58
2018-10-03T07:34:52.627Z,73.82
2018-10-03T07:37:23.456Z,73.68
2018-10-03T07:39:52.218Z,73.54
2018-10-03T07:45:07.913Z,73.07
2018-10-03T07:47:37.598Z,72.64
2018-10-03T07:50:07.374Z,72.92
2018-10-03T07:52:36.958Z,72.35
2018-10-03T07:55:07.220Z,72.21
2018-10-03T07:57:35.907Z,72.32
2018-10-03T08:00:05.398Z,72.23
2018-10-03T08:02:34.368Z,72.08
2018-10-03T08:05:02.990Z,71.94
